This is the latest recevied weather packets stored in our database for station/object TK5EP-13. If no packets are shown the sender has not sent any weather packets the latest 1 day(s).
| Time | Temp. | Humidity | Pressure | Rain* | Wind** | Luminosity | Snow |
|---|---|---|---|---|---|---|---|
| 1836274818 | 22.22° C | 48% | - | - | 2.68 m/s, 315° | - | - |
| 1836274517 | 22.78° C | 49% | - | - | 2.68 m/s, 316° | - | - |
| 1836274369 | 22.78° C | 48% | - | - | 2.68 m/s, 315° | - | - |
| 1836274216 | 22.78° C | 48% | - | - | 2.68 m/s, 317° | - | - |
| 1836273915 | 22.78° C | 47% | - | - | 3.13 m/s, 317° | - | - |
| 1778031091 | 12.22° C | 96% | - | - | 6.26 m/s, 146° | - | - |
| 1778030790 | 12.22° C | 96% | - | - | 5.81 m/s, 143° | - | - |
| 1778030489 | 12.22° C | 96% | - | - | 5.81 m/s, 141° | - | - |
| 1778030188 | 12.22° C | 96% | - | - | 5.81 m/s, 150° | - | - |
| 1778029887 | 12.22° C | 96% | - | - | 6.26 m/s, 151° | - | - |
| 1778029586 | 12.22° C | 96% | - | - | 7.15 m/s, 152° | - | - |
| 1778029286 | 12.22° C | 96% | - | - | 6.71 m/s, 145° | - | - |
| 1778028985 | 12.22° C | 96% | - | - | 6.26 m/s, 147° | - | - |
| 1778028684 | 12.22° C | 96% | - | - | 7.15 m/s, 150° | - | - |
| 1778028383 | 12.22° C | 96% | - | - | 7.6 m/s, 147° | - | - |
| 1778028079 | 12.22° C | 96% | - | - | 6.71 m/s, 140° | - | - |
| 1778027779 | 12.22° C | 96% | - | - | 6.71 m/s, 150° | - | - |
| 1778027478 | 12.22° C | 96% | - | - | 5.81 m/s, 146° | - | - |
| 1778027177 | 12.22° C | 96% | - | - | 5.36 m/s, 142° | - | - |
| 1778026876 | 12.22° C | 96% | - | - | 5.36 m/s, 152° | - | - |
| 1778026574 | 12.22° C | 96% | - | - | 6.26 m/s, 152° | - | - |
| 1778026273 | 12.22° C | 96% | - | - | 5.81 m/s, 153° | - | - |
| 1778025972 | 12.22° C | 96% | - | - | 4.47 m/s, 131° | - | - |
| 1778025671 | 12.22° C | 96% | - | - | 5.36 m/s, 144° | - | - |
| 1778025370 | 12.22° C | 96% | - | - | 4.92 m/s, 137° | - | - |
* Rain since midnight (hover to see other rain measurements)
** Current wind speed in m/s (hover to see current wind gust speed)